Time;durP1;ratioP1;P1;durP2;ratioP2;P2;SDS_P1;SDS_P2;PMS_P1;PMS_P2;Temp;Humidity;BMP_temperature;BMP_pressure;BME280_temperature;BME280_humidity;BME280_pressure;Samples;Min_cycle;Max_cycle;Signal;HPM_P1;HPM_P2
2023/08/03 00:01:39;;;;;;;6.38;2.13;;;;;;;19.69;56.72;98961.88;4142238;28;20037;-66
2023/08/03 00:03:42;;;;;;;10.00;2.17;;;;;;;19.69;56.43;98954.81;4141624;28;20491;-67
2023/08/03 00:05:47;;;;;;;8.80;2.05;;;;;;;19.78;55.86;98958.84;4133327;28;20080;-67
2023/08/03 00:07:50;;;;;;;;;;;;;;;19.71;55.99;98960.88;4142385;28;20411;-67
2023/08/03 00:09:53;;;;;;;13.27;2.40;;;;;;;19.73;55.96;98958.19;4142880;28;19927;-67
2023/08/03 00:11:56;;;;;;;8.57;1.95;;;;;;;19.70;56.14;98979.41;4141933;28;20045;-67
2023/08/03 00:13:59;;;;;;;8.25;1.83;;;;;;;19.78;56.31;98958.84;4143364;28;20099;-67
2023/08/03 00:16:02;;;;;;;8.70;2.13;;;;;;;19.79;55.92;98962.34;4144192;28;20129;-67
2023/08/03 00:18:05;;;;;;;12.05;1.70;;;;;;;19.80;55.93;98975.44;4142688;28;20044;-67
2023/08/03 00:20:08;;;;;;;9.20;2.10;;;;;;;19.84;55.54;98958.56;4142361;28;20506;-67
2023/08/03 00:22:12;;;;;;;7.28;1.80;;;;;;;19.85;56.00;98967.31;4136842;28;20511;-67
2023/08/03 00:24:15;;;;;;;7.65;1.63;;;;;;;19.80;56.06;98975.44;4126375;28;20491;-67
2023/08/03 00:26:17;;;;;;;7.93;1.80;;;;;;;19.74;56.12;98967.78;4148065;28;20040;-65
2023/08/03 00:28:21;;;;;;;10.07;2.22;;;;;;;19.81;55.93;98979.78;4141454;28;20096;-66
2023/08/03 00:30:24;;;;;;;6.40;1.90;;;;;;;19.74;56.58;98969.56;4121143;28;20047;-66
2023/08/03 00:32:27;;;;;;;10.32;2.17;;;;;;;19.79;55.99;98976.38;4141627;28;20038;-66
2023/08/03 00:34:30;;;;;;;9.07;1.52;;;;;;;19.80;55.45;98979.84;4142358;28;20053;-66
2023/08/03 00:36:32;;;;;;;13.60;2.38;;;;;;;19.86;55.77;98979.59;4105805;28;20092;-65
2023/08/03 00:38:36;;;;;;;5.65;2.15;;;;;;;19.80;56.33;98978.09;4123339;28;20058;-65
2023/08/03 00:40:39;;;;;;;8.05;2.15;;;;;;;19.79;55.88;98976.38;4145876;28;20125;-65
2023/08/03 00:42:42;;;;;;;11.50;2.45;;;;;;;19.80;55.86;98975.44;4129755;28;20030;-65
2023/08/03 00:44:45;;;;;;;13.32;2.65;;;;;;;19.86;56.01;98969.88;4131269;28;20038;-65
2023/08/03 00:46:47;;;;;;;11.20;2.30;;;;;;;19.69;56.36;98975.91;4142506;28;20144;-65
2023/08/03 00:48:50;;;;;;;6.05;2.00;;;;;;;19.80;56.67;98974.56;4126896;28;20481;-65
2023/08/03 00:50:53;;;;;;;11.52;2.00;;;;;;;19.83;56.75;98970.03;4127287;28;20093;-65
2023/08/03 00:52:56;;;;;;;7.85;2.30;;;;;;;19.73;56.63;98979.28;4143854;28;20050;-65
2023/08/03 00:55:01;;;;;;;12.52;2.58;;;;;;;19.67;56.80;98976.94;4141507;28;20042;-66
2023/08/03 00:57:04;;;;;;;10.23;2.92;;;;;;;19.64;57.02;98979.69;4147105;28;20121;-65
2023/08/03 00:59:06;;;;;;;7.07;1.95;;;;;;;19.65;57.00;98981.41;4126074;28;20066;-67
2023/08/03 01:01:10;;;;;;;11.48;2.42;;;;;;;19.67;56.57;98977.78;4127536;28;20035;-65
2023/08/03 01:03:12;;;;;;;7.10;2.13;;;;;;;19.65;56.92;98989.31;4123335;28;20394;-65
2023/08/03 01:05:16;;;;;;;7.82;2.38;;;;;;;19.65;57.09;98986.69;4144037;28;20130;-68
2023/08/03 01:07:21;;;;;;;8.63;1.92;;;;;;;19.73;57.01;98987.19;4140257;28;20034;-65
2023/08/03 01:09:24;;;;;;;11.15;3.50;;;;;;;19.64;56.63;98982.31;4138072;28;20046;-65
2023/08/03 01:11:29;;;;;;;12.73;2.67;;;;;;;19.62;56.59;98979.75;4149081;28;20034;-65
2023/08/03 01:13:32;;;;;;;8.93;2.10;;;;;;;19.62;57.27;98981.56;4144313;28;20478;-65
2023/08/03 01:15:35;;;;;;;7.63;2.00;;;;;;;19.65;56.76;98981.41;4126358;28;20066;-65
2023/08/03 01:17:38;;;;;;;8.20;2.05;;;;;;;19.63;56.94;98986.75;4133296;28;20038;-65
2023/08/03 01:19:40;;;;;;;6.53;1.88;;;;;;;19.60;57.13;98983.41;4130420;28;20034;-65
2023/08/03 01:21:44;;;;;;;10.75;2.65;;;;;;;19.65;56.96;98982.25;4144987;28;20046;-65
2023/08/03 01:23:49;;;;;;;;;;;;;;;19.54;57.19;98979.28;4114417;28;20085;-66
2023/08/03 01:25:52;;;;;;;7.25;2.13;;;;;;;19.59;57.29;98982.53;4126885;28;19921;-65
2023/08/03 01:27:55;;;;;;;11.07;2.25;;;;;;;19.58;57.49;98986.13;4123657;28;20048;-65
2023/08/03 01:29:58;;;;;;;12.73;2.38;;;;;;;19.60;57.40;98988.69;4128842;28;20520;-65
2023/08/03 01:32:02;;;;;;;12.32;2.75;;;;;;;19.59;57.66;98992.25;4138154;28;20467;-65
2023/08/03 01:34:05;;;;;;;7.85;2.55;;;;;;;19.61;57.79;98988.63;4148856;28;20041;-65
2023/08/03 01:36:08;;;;;;;5.05;1.80;;;;;;;19.62;57.79;98992.09;4126161;28;20073;-65
2023/08/03 01:38:13;;;;;;;11.45;2.05;;;;;;;19.58;57.36;98990.53;4136948;28;20047;-66
2023/08/03 01:40:19;;;;;;;4.45;1.52;;;;;;;19.59;57.62;98994.88;4144057;28;20117;-66
2023/08/03 01:42:22;;;;;;;10.23;2.20;;;;;;;19.60;57.55;98989.53;4127958;28;20046;-66
2023/08/03 01:44:27;;;;;;;9.70;2.20;;;;;;;19.58;57.53;99017.75;4125226;28;20038;-66
2023/08/03 01:46:30;;;;;;;7.78;2.67;;;;;;;19.57;57.33;99008.13;4128010;28;20389;-66
2023/08/03 01:48:33;;;;;;;7.37;2.13;;;;;;;19.56;56.94;99014.31;4145795;28;20113;-67
2023/08/03 01:50:36;;;;;;;9.68;1.95;;;;;;;19.54;56.70;99017.03;4131135;28;20037;-66
2023/08/03 01:52:39;;;;;;;9.40;1.77;;;;;;;19.51;56.41;99016.34;4153445;28;20030;-66
2023/08/03 01:54:42;;;;;;;12.25;2.90;;;;;;;19.46;56.95;99026.22;4133124;28;20084;-66
2023/08/03 01:56:46;;;;;;;7.75;1.98;;;;;;;19.48;57.09;99021.75;4131133;28;20034;-66
2023/08/03 01:58:49;;;;;;;5.72;1.50;;;;;;;19.49;57.29;99012.88;4134124;28;20125;-65
2023/08/03 02:00:52;;;;;;;8.00;1.67;;;;;;;19.46;57.42;99015.66;4135230;28;20034;-65
2023/08/03 02:02:55;;;;;;;9.75;2.05;;;;;;;19.48;57.14;99019.97;4151288;28;20455;-65
2023/08/03 02:05:02;;;;;;;5.93;1.77;;;;;;;19.48;56.84;99012.03;4144044;28;20432;-65
2023/08/03 02:07:09;;;;;;;11.40;1.88;;;;;;;19.50;56.58;98998.78;4140061;28;20033;-67
2023/08/03 02:09:12;;;;;;;7.70;1.60;;;;;;;19.42;56.42;99007.06;4153499;28;20037;-66
2023/08/03 02:11:15;;;;;;;6.95;1.80;;;;;;;19.40;56.66;99014.16;4134840;28;20037;-67
2023/08/03 02:13:30;;;;;;;6.68;2.33;;;;;;;19.40;56.55;99013.31;4139105;28;20475;-66
2023/08/03 02:15:33;;;;;;;6.35;1.65;;;;;;;19.31;56.65;99015.44;4138132;28;20432;-66
2023/08/03 02:17:34;;;;;;;5.55;1.98;;;;;;;19.32;55.65;99026.84;4133181;28;20094;-64
2023/08/03 02:19:37;;;;;;;9.70;2.05;;;;;;;19.29;55.60;99025.22;4135735;28;20041;-65
2023/08/03 02:21:40;;;;;;;5.85;1.50;;;;;;;19.36;55.05;99013.47;4139640;28;20491;-65
2023/08/03 02:23:44;;;;;;;8.45;1.52;;;;;;;19.27;55.23;99023.56;4136637;28;20783;-64
2023/08/03 02:25:47;;;;;;;6.72;2.13;;;;;;;19.22;55.39;99039.56;4122014;28;20093;-65
2023/08/03 02:27:51;;;;;;;7.40;1.30;;;;;;;19.33;55.31;99031.19;4121907;28;20026;-65
2023/08/03 02:29:57;;;;;;;5.43;1.75;;;;;;;19.36;55.61;99028.41;4111290;28;20050;-65
2023/08/03 02:32:01;;;;;;;5.47;1.77;;;;;;;19.34;55.44;99040.81;4134286;28;20045;-65
2023/08/03 02:34:04;;;;;;;5.00;1.23;;;;;;;19.30;55.39;99028.69;4101872;28;20171;-65
2023/08/03 02:36:14;;;;;;;4.78;1.10;;;;;;;19.30;56.11;99040.09;4123321;28;20039;-65
2023/08/03 02:38:18;;;;;;;6.68;1.70;;;;;;;19.22;55.90;99049.25;4137571;28;20034;-65
2023/08/03 02:40:23;;;;;;;4.68;1.30;;;;;;;19.21;56.32;99047.53;4135146;28;20038;-65
2023/08/03 02:42:27;;;;;;;6.77;1.33;;;;;;;19.23;56.16;99053.59;4138945;28;20046;-64
2023/08/03 02:44:31;;;;;;;4.65;1.20;;;;;;;19.19;55.76;99053.72;4136397;28;20129;-64
2023/08/03 02:46:35;;;;;;;9.95;1.80;;;;;;;19.13;56.13;99059.28;4136597;28;20034;-64
2023/08/03 02:48:39;;;;;;;4.72;1.55;;;;;;;19.18;56.20;99059.06;4118673;28;20053;-65
2023/08/03 02:50:41;;;;;;;8.70;1.40;;;;;;;19.19;56.02;99068.69;4120652;28;20034;-63
2023/08/03 02:52:47;;;;;;;12.07;1.63;;;;;;;19.13;56.27;99061.91;4111574;28;20035;-66
2023/08/03 02:54:50;;;;;;;5.05;1.35;;;;;;;19.06;57.03;99065.72;4138900;28;20041;-64
2023/08/03 02:56:55;;;;;;;5.55;1.50;;;;;;;19.02;57.02;99072.88;4135665;28;20042;-65
2023/08/03 02:58:58;;;;;;;4.03;1.10;;;;;;;18.96;57.73;99077.59;4116957;28;20054;-65
2023/08/03 03:01:11;;;;;;;7.03;1.40;;;;;;;19.08;57.27;99078.84;4122571;28;20046;-64
2023/08/03 03:03:15;;;;;;;7.72;1.48;;;;;;;18.93;57.56;99082.97;4113737;28;20129;-64
2023/08/03 03:05:17;;;;;;;5.63;1.58;;;;;;;18.91;57.71;99085.69;4106993;28;20143;-65
2023/08/03 03:07:23;;;;;;;4.00;1.20;;;;;;;18.94;57.82;99097.84;4118679;28;20028;-64
2023/08/03 03:09:29;;;;;;;7.72;1.95;;;;;;;18.84;58.32;99105.25;4108428;28;20087;-64
2023/08/03 03:11:36;;;;;;;3.40;1.08;;;;;;;18.80;58.07;99087.88;4121152;28;20042;-65
2023/08/03 03:13:39;;;;;;;4.80;1.33;;;;;;;18.86;57.92;99087.63;4117889;28;20423;-65
2023/08/03 03:15:43;;;;;;;6.30;1.63;;;;;;;18.88;57.74;99082.31;4133552;28;20035;-66
2023/08/03 03:17:46;;;;;;;5.85;1.15;;;;;;;18.90;57.97;99093.66;4137193;28;20088;-64
2023/08/03 03:19:50;;;;;;;8.30;1.35;;;;;;;18.83;58.11;99093.84;4136161;28;20045;-65
2023/08/03 03:21:52;;;;;;;7.45;1.23;;;;;;;18.78;58.67;99093.19;4121389;28;20038;-65
2023/08/03 03:23:55;;;;;;;4.28;1.00;;;;;;;18.76;58.18;99100.31;4123216;28;20057;-65
2023/08/03 03:25:58;;;;;;;5.07;1.10;;;;;;;18.77;59.04;99109.06;4125135;28;20092;-65
2023/08/03 03:28:04;;;;;;;3.65;1.25;;;;;;;18.72;58.78;99104.00;4110704;28;20046;-65
2023/08/03 03:30:11;;;;;;;5.32;1.40;;;;;;;18.68;59.12;99099.78;4124469;28;20072;-65
2023/08/03 03:32:14;;;;;;;9.20;1.40;;;;;;;18.74;58.66;99106.56;4117667;28;20579;-65
2023/08/03 03:34:17;;;;;;;7.40;1.13;;;;;;;18.75;58.88;99105.63;4137821;28;20320;-65
2023/08/03 03:36:23;;;;;;;3.97;1.10;;;;;;;18.82;59.02;99104.44;4136507;28;20130;-66
2023/08/03 03:38:26;;;;;;;5.85;1.23;;;;;;;18.78;58.46;99116.91;4118198;28;20037;-66
2023/08/03 03:40:29;;;;;;;5.28;1.60;;;;;;;18.82;58.36;99121.13;4134609;28;20062;-66
2023/08/03 03:42:33;;;;;;;8.10;1.20;;;;;;;18.88;58.32;99119.16;4127155;28;20050;-65
2023/08/03 03:44:37;;;;;;;5.43;1.80;;;;;;;18.84;58.21;99119.28;4121248;28;20519;-67
2023/08/03 03:46:40;;;;;;;6.40;1.63;;;;;;;18.88;57.69;99127.06;4120918;28;20549;-67
2023/08/03 03:48:44;;;;;;;6.57;1.50;;;;;;;18.92;57.66;99129.50;4117899;28;20451;-67
2023/08/03 03:50:47;;;;;;;5.10;1.20;;;;;;;18.89;57.38;99127.00;4113451;28;20047;-67
2023/08/03 03:52:53;;;;;;;;;;;;;;;18.90;57.96;99130.53;4116133;28;20530;-67
2023/08/03 03:54:56;;;;;;;5.53;1.07;;;;;;;18.92;57.99;99133.94;4129393;28;19985;-67
2023/08/03 03:57:00;;;;;;;5.43;0.98;;;;;;;18.97;57.68;99138.09;4122507;28;20316;-67
2023/08/03 03:59:07;;;;;;;6.13;1.00;;;;;;;18.98;57.75;99139.81;4116355;28;20038;-66
2023/08/03 04:01:11;;;;;;;3.03;0.80;;;;;;;18.92;56.73;99133.94;4120592;28;20084;-66
2023/08/03 04:03:13;;;;;;;4.63;0.90;;;;;;;19.02;57.14;99133.47;4116417;28;20043;-67
2023/08/03 04:05:16;;;;;;;5.75;1.42;;;;;;;18.98;57.32;99144.19;4112482;28;20161;-67
2023/08/03 04:07:20;;;;;;;3.28;1.20;;;;;;;18.96;57.45;99146.06;4115038;28;20061;-67
2023/08/03 04:09:26;;;;;;;4.18;1.35;;;;;;;19.08;57.29;99137.63;4133701;28;20085;-67
2023/08/03 04:11:29;;;;;;;2.83;0.75;;;;;;;18.97;57.61;99137.25;4117052;28;20045;-67
2023/08/03 04:13:34;;;;;;;6.28;1.52;;;;;;;19.00;57.64;99147.66;4111294;28;20551;-67
2023/08/03 04:15:37;;;;;;;4.30;1.10;;;;;;;19.00;57.88;99151.13;4125418;28;20069;-67
2023/08/03 04:17:39;;;;;;;5.68;1.30;;;;;;;18.99;57.53;99154.66;4138113;28;20038;-66
2023/08/03 04:19:46;;;;;;;5.90;1.25;;;;;;;18.99;58.22;99161.72;4132544;28;20133;-67
2023/08/03 04:21:47;;;;;;;4.68;1.13;;;;;;;19.02;57.98;99151.91;4108547;28;20038;-67
2023/08/03 04:23:50;;;;;;;4.53;1.33;;;;;;;19.01;57.94;99165.16;4127458;28;20504;-66
2023/08/03 04:25:55;;;;;;;5.30;0.90;;;;;;;18.92;57.99;99170.81;4123026;28;20041;-66
2023/08/03 04:28:00;;;;;;;4.18;1.65;;;;;;;18.97;58.78;99166.22;4126954;28;20602;-66
2023/08/03 04:30:10;;;;;;;3.53;1.10;;;;;;;18.98;58.32;99168.78;4115623;28;20045;-66
2023/08/03 04:32:15;;;;;;;5.25;0.98;;;;;;;18.88;59.07;99179.75;4131600;28;20038;-66
2023/08/03 04:34:20;;;;;;;4.78;0.95;;;;;;;18.90;58.86;99181.41;4119946;28;20043;-66
2023/08/03 04:36:24;;;;;;;;;;;;;;;18.83;59.05;99174.63;4122871;28;20038;-66
2023/08/03 04:38:27;;;;;;;7.15;1.20;;;;;;;18.80;58.84;99172.97;4121145;28;20024;-66
2023/08/03 04:40:35;;;;;;;4.00;0.73;;;;;;;18.69;59.52;99169.94;4113938;28;20079;-66
2023/08/03 04:42:40;;;;;;;6.10;1.45;;;;;;;18.84;59.62;99179.00;4113123;28;20057;-66
2023/08/03 04:44:42;;;;;;;6.05;1.20;;;;;;;18.72;59.30;99179.47;4102623;28;20571;-66
2023/08/03 04:46:46;;;;;;;5.55;1.30;;;;;;;18.65;59.53;99192.03;4117397;28;20483;-66
2023/08/03 04:48:49;;;;;;;5.82;1.48;;;;;;;18.61;60.08;99200.97;4103738;28;20508;-66
2023/08/03 04:50:52;;;;;;;4.47;1.20;;;;;;;18.57;60.09;99197.56;4100567;28;20046;-66
2023/08/03 04:52:57;;;;;;;5.28;1.17;;;;;;;18.60;60.19;99196.59;4123417;28;20054;-65
2023/08/03 04:55:00;;;;;;;4.88;1.70;;;;;;;18.60;60.53;99188.72;4118117;28;20038;-66
2023/08/03 04:57:03;;;;;;;3.38;1.10;;;;;;;18.53;60.74;99195.13;4137610;28;20062;-66
2023/08/03 04:59:11;;;;;;;6.18;1.30;;;;;;;18.49;61.09;99200.50;4123448;28;20050;-67
2023/08/03 05:01:14;;;;;;;4.20;1.00;;;;;;;18.48;61.01;99204.06;4118672;28;20507;-66
2023/08/03 05:03:16;;;;;;;4.15;1.30;;;;;;;18.51;61.53;99196.97;4125527;28;20069;-66
2023/08/03 05:05:19;;;;;;;5.80;1.23;;;;;;;18.52;61.67;99201.34;4137635;28;20030;-66
2023/08/03 05:07:23;;;;;;;3.45;0.90;;;;;;;18.39;62.40;99207.03;4135969;28;20208;-66
2023/08/03 05:09:27;;;;;;;2.97;1.13;;;;;;;18.38;62.35;99213.22;4135777;28;20037;-66
2023/08/03 05:11:30;;;;;;;2.17;0.70;;;;;;;18.35;62.64;99223.00;4126360;28;20073;-65
2023/08/03 05:13:33;;;;;;;4.50;1.30;;;;;;;18.22;63.14;99218.19;4116385;28;20046;-66
2023/08/03 05:15:37;;;;;;;7.15;1.35;;;;;;;18.22;63.71;99223.47;4135437;28;20077;-66
2023/08/03 05:17:40;;;;;;;2.30;1.10;;;;;;;18.17;63.82;99221.94;4125065;28;20483;-66
2023/08/03 05:19:43;;;;;;;4.32;0.93;;;;;;;18.16;63.74;99225.47;4123870;28;20073;-65
2023/08/03 05:21:46;;;;;;;4.70;1.25;;;;;;;18.18;63.93;99229.78;4118356;28;20039;-66
2023/08/03 05:23:48;;;;;;;7.40;1.55;;;;;;;18.22;63.90;99228.72;4125366;28;20102;-66
2023/08/03 05:25:54;;;;;;;5.13;1.17;;;;;;;18.14;63.94;99236.91;4123745;28;20093;-66
2023/08/03 05:27:57;;;;;;;5.93;1.25;;;;;;;18.19;64.17;99238.50;4119367;28;20101;-66
2023/08/03 05:30:00;;;;;;;6.18;1.25;;;;;;;18.23;63.85;99234.84;4119869;28;20403;-66
2023/08/03 05:32:05;;;;;;;4.78;1.13;;;;;;;18.09;64.09;99249.38;4125415;28;20455;-66
2023/08/03 05:34:08;;;;;;;4.32;1.30;;;;;;;18.18;64.00;99234.16;4122554;28;20559;-66
2023/08/03 05:36:11;;;;;;;3.38;1.42;;;;;;;18.19;63.85;99247.25;4121354;28;20472;-66
2023/08/03 05:38:15;;;;;;;6.93;1.38;;;;;;;18.24;63.92;99241.84;4134073;28;20133;-66
2023/08/03 05:40:18;;;;;;;4.28;1.02;;;;;;;18.17;64.35;99245.63;4117961;28;20031;-66
2023/08/03 05:42:21;;;;;;;4.07;1.10;;;;;;;18.23;64.13;99248.84;4123936;28;20376;-66
2023/08/03 05:44:24;;;;;;;2.65;0.88;;;;;;;18.24;64.06;99258.47;4124486;28;20695;-66
2023/08/03 05:46:32;;;;;;;5.40;1.48;;;;;;;18.22;64.33;99264.69;4121724;28;20472;-66
2023/08/03 05:48:36;;;;;;;7.28;1.40;;;;;;;18.28;63.58;99270.59;4118689;28;20046;-66
2023/08/03 05:50:42;;;;;;;4.03;1.20;;;;;;;18.23;64.42;99275.16;4121965;28;20034;-66
2023/08/03 05:52:45;;;;;;;8.02;1.63;;;;;;;18.30;64.06;99273.19;4122761;28;20062;-67
2023/08/03 05:54:50;;;;;;;5.70;1.80;;;;;;;18.37;63.55;99253.63;4131215;28;20517;-66
2023/08/03 05:56:53;;;;;;;4.22;1.35;;;;;;;18.32;63.30;99266.06;4125996;28;20039;-66
2023/08/03 05:58:55;;;;;;;4.15;1.50;;;;;;;18.36;62.17;99272.94;4118965;28;20498;-66
2023/08/03 06:00:58;;;;;;;5.15;1.35;;;;;;;18.37;62.21;99263.28;4104227;28;20046;-66
2023/08/03 06:03:01;;;;;;;10.02;1.70;;;;;;;18.40;62.34;99279.81;4121964;28;20050;-66
2023/08/03 06:05:40;;;;;;;4.10;1.50;;;;;;;18.52;62.55;99273.25;4116364;28;20046;-66
2023/08/03 06:07:42;;;;;;;;;;;;;;;18.46;62.47;99284.00;4117346;28;20080;-66
2023/08/03 06:09:48;;;;;;;8.48;1.65;;;;;;;18.44;62.22;99273.53;4120793;28;19934;-66
2023/08/03 06:11:52;;;;;;;9.95;1.85;;;;;;;18.44;62.54;99280.56;4120152;28;20034;-66
2023/08/03 06:13:55;;;;;;;4.50;1.30;;;;;;;18.45;61.97;99285.75;4120130;28;20501;-66
2023/08/03 06:15:59;;;;;;;4.50;1.20;;;;;;;18.51;62.01;99286.47;4119032;28;20050;-66
2023/08/03 06:18:03;;;;;;;4.68;1.20;;;;;;;18.45;62.22;99290.16;4120175;28;20483;-66
2023/08/03 06:20:13;;;;;;;8.90;1.48;;;;;;;18.50;62.46;99296.13;4120624;28;20500;-66
2023/08/03 06:22:21;;;;;;;7.88;1.60;;;;;;;18.46;61.48;99292.75;4118020;28;20533;-66
2023/08/03 06:24:23;;;;;;;8.32;1.52;;;;;;;18.54;62.14;99291.59;4132342;28;20038;-66
2023/08/03 06:26:28;;;;;;;7.38;1.42;;;;;;;18.57;61.61;99286.22;4133889;28;20043;-66
2023/08/03 06:28:31;;;;;;;;;;;;;;;18.55;61.47;99295.97;4126951;28;20030;-66
2023/08/03 06:30:36;;;;;;;9.00;2.43;;;;;;;18.60;60.80;99294.88;4117541;28;19957;-66
2023/08/03 06:32:39;;;;;;;4.57;1.17;;;;;;;18.54;60.91;99299.50;4107954;28;20078;-65
2023/08/03 06:34:42;;;;;;;6.85;1.45;;;;;;;18.40;61.74;99300.88;4120517;28;20462;-66
2023/08/03 06:36:46;;;;;;;7.07;1.90;;;;;;;18.44;61.24;99288.44;4120998;28;20073;-66
2023/08/03 06:38:49;;;;;;;6.35;1.48;;;;;;;18.47;61.78;99307.63;4120162;28;20073;-65
2023/08/03 06:40:54;;;;;;;8.02;1.80;;;;;;;18.51;61.83;99308.34;4124059;28;20841;-65
2023/08/03 06:42:57;;;;;;;8.80;1.60;;;;;;;18.47;61.93;99307.63;4119740;28;20133;-65
2023/08/03 06:44:59;;;;;;;20.20;2.50;;;;;;;18.52;61.44;99303.97;4116041;28;20054;-65
2023/08/03 06:47:02;;;;;;;5.75;1.23;;;;;;;18.54;61.42;99302.13;4121333;28;20133;-65
2023/08/03 06:49:06;;;;;;;11.70;1.90;;;;;;;18.57;61.38;99307.28;4121770;28;20043;-66
2023/08/03 06:51:09;;;;;;;6.32;1.70;;;;;;;18.59;61.50;99306.31;4133779;28;20046;-65
2023/08/03 06:53:13;;;;;;;9.98;1.85;;;;;;;18.64;61.58;99303.50;4118822;28;20068;-65
2023/08/03 06:55:16;;;;;;;7.40;1.58;;;;;;;18.64;60.34;99300.88;4136280;28;20141;-66
2023/08/03 06:57:20;;;;;;;9.57;1.75;;;;;;;18.67;60.57;99306.91;4136425;28;20042;-65
2023/08/03 06:59:23;;;;;;;8.93;2.10;;;;;;;18.65;60.41;99307.84;4118107;28;20062;-65
2023/08/03 07:01:26;;;;;;;8.95;1.98;;;;;;;18.73;60.58;99316.31;4115243;28;20049;-64
2023/08/03 07:03:29;;;;;;;4.38;1.48;;;;;;;18.74;60.45;99315.41;4121795;28;20396;-65
2023/08/03 07:05:32;;;;;;;13.35;2.30;;;;;;;18.77;61.13;99314.44;4118943;28;20089;-65
2023/08/03 07:07:35;;;;;;;7.90;1.88;;;;;;;18.83;61.17;99315.03;4117184;28;20043;-65
2023/08/03 07:09:39;;;;;;;9.82;1.50;;;;;;;18.91;60.61;99322.69;4134616;28;20042;-65
2023/08/03 07:11:42;;;;;;;6.78;1.48;;;;;;;18.96;60.53;99319.88;4121159;28;20073;-65
2023/08/03 07:13:45;;;;;;;5.63;1.55;;;;;;;19.13;60.71;99335.88;4115250;28;20130;-65
2023/08/03 07:15:48;;;;;;;4.75;1.48;;;;;;;19.13;60.07;99333.25;4117220;28;20156;-66
2023/08/03 07:17:51;;;;;;;8.32;1.50;;;;;;;19.28;60.09;99320.41;4122560;28;20065;-66
2023/08/03 07:19:54;;;;;;;5.55;1.40;;;;;;;19.38;59.76;99332.28;4119772;28;20062;-66
2023/08/03 07:21:57;;;;;;;10.10;1.65;;;;;;;19.52;59.74;99331.72;4112415;28;20483;-65
2023/08/03 07:24:01;;;;;;;6.18;1.90;;;;;;;19.62;59.35;99337.47;4123671;28;20034;-66
2023/08/03 07:26:14;;;;;;;6.13;1.17;;;;;;;19.42;59.56;99338.28;4120242;28;20058;-65
2023/08/03 07:28:17;;;;;;;9.60;1.80;;;;;;;19.34;59.65;99339.44;4117767;28;20520;-65
2023/08/03 07:30:20;;;;;;;14.45;1.90;;;;;;;19.27;60.11;99345.88;4118637;28;20070;-65
2023/08/03 07:32:22;;;;;;;7.25;1.40;;;;;;;19.21;60.33;99345.28;4119417;28;20544;-65
2023/08/03 07:34:25;;;;;;;8.77;2.28;;;;;;;19.08;61.46;99358.06;4122146;28;20044;-66
2023/08/03 07:36:27;;;;;;;14.05;2.00;;;;;;;19.16;61.33;99350.72;4121637;28;20124;-65
2023/08/03 07:38:30;;;;;;;4.35;1.20;;;;;;;19.05;60.98;99360.81;4118414;28;20035;-65
2023/08/03 07:40:33;;;;;;;9.43;1.77;;;;;;;19.09;61.17;99368.53;4123866;28;20030;-65
2023/08/03 07:42:37;;;;;;;13.90;1.70;;;;;;;19.09;61.43;99360.63;4121056;28;20145;-65
2023/08/03 07:44:40;;;;;;;12.40;1.85;;;;;;;19.14;61.89;99349.91;4116452;28;20047;-65
2023/08/03 07:46:47;;;;;;;7.00;1.85;;;;;;;18.98;61.53;99371.59;4120833;28;20054;-66
2023/08/03 07:48:49;;;;;;;4.55;1.40;;;;;;;18.80;62.22;99373.09;4120403;28;20070;-65
2023/08/03 07:50:52;;;;;;;7.38;1.60;;;;;;;18.78;62.75;99372.31;4118885;28;20030;-65
2023/08/03 07:52:55;;;;;;;7.03;1.50;;;;;;;18.78;62.45;99374.09;4123853;28;20129;-65
2023/08/03 07:54:58;;;;;;;8.02;1.77;;;;;;;18.82;62.11;99375.66;4119108;28;20165;-65
2023/08/03 07:57:01;;;;;;;7.20;1.67;;;;;;;18.73;62.57;99368.13;4113692;28;20038;-66
2023/08/03 07:59:05;;;;;;;13.70;1.70;;;;;;;18.80;62.88;99378.34;4122933;28;20050;-65
2023/08/03 08:01:07;;;;;;;7.32;1.70;;;;;;;18.73;62.39;99379.50;4131802;28;20054;-65
2023/08/03 08:03:10;;;;;;;8.88;1.55;;;;;;;18.77;63.48;99378.47;4122639;28;20054;-65
2023/08/03 08:05:13;;;;;;;4.72;1.30;;;;;;;18.78;62.91;99389.88;4120246;28;20043;-65
2023/08/03 08:07:16;;;;;;;8.83;1.50;;;;;;;18.67;62.83;99390.25;4113630;28;20038;-64
2023/08/03 08:09:19;;;;;;;6.35;1.33;;;;;;;18.72;63.16;99396.22;4120978;28;20133;-64
2023/08/03 08:11:21;;;;;;;4.75;1.20;;;;;;;18.72;62.99;99398.84;4114269;28;20039;-64
2023/08/03 08:13:24;;;;;;;5.40;1.38;;;;;;;18.69;63.23;99396.34;4117065;28;20066;-64
2023/08/03 08:15:29;;;;;;;7.25;1.83;;;;;;;18.64;63.84;99393.00;4161304;22;20045;-63
2023/08/03 08:17:32;;;;;;;10.65;1.98;;;;;;;18.71;63.80;99399.78;4151560;28;20042;-63
2023/08/03 08:19:35;;;;;;;5.47;1.48;;;;;;;18.82;63.30;99413.41;4151351;28;20037;-63
2023/08/03 08:21:38;;;;;;;5.30;1.60;;;;;;;18.80;63.56;99404.69;4150457;28;20042;-63
2023/08/03 08:23:41;;;;;;;5.40;1.30;;;;;;;18.78;63.92;99411.78;4129467;28;20129;-63
2023/08/03 08:25:44;;;;;;;5.30;1.35;;;;;;;18.70;63.66;99416.47;4151368;28;20120;-64
2023/08/03 08:27:47;;;;;;;4.45;1.48;;;;;;;18.62;63.78;99418.53;4136939;28;20041;-63
2023/08/03 08:29:50;;;;;;;10.88;1.40;;;;;;;18.62;64.46;99415.91;4152409;28;20036;-63
2023/08/03 08:31:55;;;;;;;8.70;1.40;;;;;;;18.65;64.20;99421.91;4145650;28;20050;-64
2023/08/03 08:33:58;;;;;;;7.22;1.70;;;;;;;18.55;64.33;99414.41;4134573;28;20523;-63
2023/08/03 08:36:01;;;;;;;9.40;1.90;;;;;;;18.66;64.84;99425.38;4134349;28;20038;-63
2023/08/03 08:38:05;;;;;;;11.18;2.28;;;;;;;18.65;64.09;99418.44;4152446;28;20123;-63
2023/08/03 08:40:11;;;;;;;5.63;1.58;;;;;;;18.72;64.31;99433.09;4147553;28;20120;-63
2023/08/03 08:42:15;;;;;;;6.22;1.70;;;;;;;18.87;63.69;99425.59;4145560;28;20408;-63
2023/08/03 08:44:18;;;;;;;5.43;1.33;;;;;;;18.85;64.08;99433.47;4153628;28;20042;-63
2023/08/03 08:46:20;;;;;;;4.60;1.23;;;;;;;18.84;64.36;99426.50;4134846;28;20042;-63
2023/08/03 08:48:25;;;;;;;7.65;1.50;;;;;;;18.74;63.90;99436.50;4150451;28;20040;-63
2023/08/03 08:50:31;;;;;;;7.13;1.70;;;;;;;18.88;63.94;99446.59;4150804;28;20061;-64
2023/08/03 08:52:37;;;;;;;3.47;1.20;;;;;;;18.83;63.87;99441.44;4151515;28;20108;-63
2023/08/03 08:54:43;;;;;;;3.20;0.93;;;;;;;18.98;63.12;99439.19;4152376;28;20466;-63
2023/08/03 08:56:50;;;;;;;4.07;1.15;;;;;;;18.91;63.33;99456.13;4128773;28;20058;-64
2023/08/03 08:58:55;;;;;;;5.88;1.40;;;;;;;18.90;63.13;99451.81;4153811;28;20137;-63
2023/08/03 09:01:05;;;;;;;6.35;1.83;;;;;;;18.95;63.63;99448.09;4134138;28;20045;-62
2023/08/03 09:03:07;;;;;;;6.18;1.13;;;;;;;18.97;63.78;99458.56;4153958;28;20042;-63
2023/08/03 09:05:14;;;;;;;6.53;1.52;;;;;;;18.93;64.04;99460.44;4148332;28;20136;-64
2023/08/03 09:07:18;;;;;;;7.95;1.75;;;;;;;19.03;63.18;99463.59;4131954;28;20420;-64
2023/08/03 09:09:27;;;;;;;5.30;1.65;;;;;;;19.02;63.35;99459.25;4153534;28;20037;-63
2023/08/03 09:11:37;;;;;;;5.65;1.48;;;;;;;19.13;63.32;99459.72;4155554;28;20061;-63
2023/08/03 09:13:40;;;;;;;4.60;1.20;;;;;;;19.20;63.36;99465.59;4148078;28;20042;-64
2023/08/03 09:15:43;;;;;;;5.65;1.35;;;;;;;19.27;63.25;99466.25;4118712;28;20058;-63
2023/08/03 09:17:47;;;;;;;5.10;1.35;;;;;;;19.51;62.79;99482.91;4154570;28;20061;-63
2023/08/03 09:19:49;;;;;;;5.03;1.45;;;;;;;19.46;62.83;99469.88;4132157;28;20133;-63
2023/08/03 09:21:59;;;;;;;2.67;1.00;;;;;;;19.42;63.00;99473.56;4133451;28;20662;-63
2023/08/03 09:24:17;;;;;;;9.90;1.35;;;;;;;19.54;62.71;99467.81;4149279;28;20129;-64
2023/08/03 09:26:24;;;;;;;4.72;1.40;;;;;;;19.40;63.44;99483.28;4130590;28;20929;-63
2023/08/03 09:28:36;;;;;;;4.65;1.08;;;;;;;19.30;63.52;99480.19;4132053;28;20393;-63
2023/08/03 09:30:48;;;;;;;5.88;1.52;;;;;;;19.27;63.58;99482.03;4133959;28;20463;-63
2023/08/03 09:33:14;;;;;;;6.78;1.25;;;;;;;19.25;63.67;99487.38;4153375;28;20046;-63
2023/08/03 09:35:20;;;;;;;;;;;;;;;19.37;63.87;99486.06;4146961;28;20460;-63
2023/08/03 09:37:34;;;;;;;7.60;1.73;;;;;;;19.25;64.25;99486.53;4154175;28;19960;-63
2023/08/03 09:39:53;;;;;;;3.90;1.05;;;;;;;19.32;64.37;99491.50;4145176;28;20538;-63
2023/08/03 09:41:57;;;;;;;2.30;1.00;;;;;;;19.15;64.54;99497.38;4149138;28;20040;-63
2023/08/03 09:44:01;;;;;;;10.15;1.80;;;;;;;19.05;65.53;99498.63;4149801;28;20044;-63
2023/08/03 09:46:05;;;;;;;8.02;1.55;;;;;;;19.16;65.62;99493.84;4155696;28;20557;-63